sensor_id;sensor_type;location;lat;lon;timestamp;P1;durP1;ratioP1;P2;durP2;ratioP2
10761;SDS011;5433;50.862;4.320;2023-08-06T00:00:20;4.97;;;3.38;;
10761;SDS011;5433;50.862;4.320;2023-08-06T00:02:47;6.18;;;4.15;;
10761;SDS011;5433;50.862;4.320;2023-08-06T00:05:13;5.40;;;3.08;;
10761;SDS011;5433;50.862;4.320;2023-08-06T00:07:42;5.72;;;3.10;;
10761;SDS011;5433;50.862;4.320;2023-08-06T00:10:09;4.05;;;3.30;;
10761;SDS011;5433;50.862;4.320;2023-08-06T00:12:35;7.82;;;3.50;;
10761;SDS011;5433;50.862;4.320;2023-08-06T00:15:01;4.03;;;3.38;;
10761;SDS011;5433;50.862;4.320;2023-08-06T00:17:27;6.85;;;3.50;;
10761;SDS011;5433;50.862;4.320;2023-08-06T00:19:53;6.32;;;3.67;;
10761;SDS011;5433;50.862;4.320;2023-08-06T00:22:19;7.32;;;3.88;;
10761;SDS011;5433;50.862;4.320;2023-08-06T00:27:49;6.40;;;3.70;;
10761;SDS011;5433;50.862;4.320;2023-08-06T00:30:15;6.20;;;3.92;;
10761;SDS011;5433;50.862;4.320;2023-08-06T00:32:41;6.50;;;4.07;;
10761;SDS011;5433;50.862;4.320;2023-08-06T00:35:07;5.22;;;3.90;;
10761;SDS011;5433;50.862;4.320;2023-08-06T00:37:33;8.38;;;4.65;;
10761;SDS011;5433;50.862;4.320;2023-08-06T00:39:59;6.78;;;5.18;;
10761;SDS011;5433;50.862;4.320;2023-08-06T00:42:25;8.32;;;5.20;;
10761;SDS011;5433;50.862;4.320;2023-08-06T00:44:51;6.93;;;5.22;;
10761;SDS011;5433;50.862;4.320;2023-08-06T00:47:17;6.88;;;4.90;;
10761;SDS011;5433;50.862;4.320;2023-08-06T00:49:43;6.85;;;5.32;;
10761;SDS011;5433;50.862;4.320;2023-08-06T00:52:09;9.55;;;6.07;;
10761;SDS011;5433;50.862;4.320;2023-08-06T00:54:35;10.90;;;6.53;;
10761;SDS011;5433;50.862;4.320;2023-08-06T00:57:01;8.32;;;5.82;;
10761;SDS011;5433;50.862;4.320;2023-08-06T00:59:28;8.98;;;7.07;;
10761;SDS011;5433;50.862;4.320;2023-08-06T01:01:54;10.68;;;6.68;;
10761;SDS011;5433;50.862;4.320;2023-08-06T01:04:20;11.93;;;7.00;;
10761;SDS011;5433;50.862;4.320;2023-08-06T01:07:33;11.18;;;7.78;;
10761;SDS011;5433;50.862;4.320;2023-08-06T01:17:03;13.75;;;8.43;;
10761;SDS011;5433;50.862;4.320;2023-08-06T01:19:30;12.35;;;8.82;;
10761;SDS011;5433;50.862;4.320;2023-08-06T01:21:56;12.15;;;8.52;;
10761;SDS011;5433;50.862;4.320;2023-08-06T01:24:22;16.42;;;8.57;;
10761;SDS011;5433;50.862;4.320;2023-08-06T01:26:51;12.90;;;8.13;;
10761;SDS011;5433;50.862;4.320;2023-08-06T01:29:31;12.00;;;8.45;;
10761;SDS011;5433;50.862;4.320;2023-08-06T01:32:02;12.38;;;8.77;;
10761;SDS011;5433;50.862;4.320;2023-08-06T01:34:30;14.20;;;8.82;;
10761;SDS011;5433;50.862;4.320;2023-08-06T01:36:57;16.20;;;8.70;;
10761;SDS011;5433;50.862;4.320;2023-08-06T01:39:23;13.98;;;8.48;;
10761;SDS011;5433;50.862;4.320;2023-08-06T01:41:49;14.88;;;8.43;;
10761;SDS011;5433;50.862;4.320;2023-08-06T01:44:15;12.27;;;8.57;;
10761;SDS011;5433;50.862;4.320;2023-08-06T01:46:41;12.55;;;8.52;;
10761;SDS011;5433;50.862;4.320;2023-08-06T01:49:07;12.18;;;8.45;;
10761;SDS011;5433;50.862;4.320;2023-08-06T01:51:33;10.07;;;7.32;;
10761;SDS011;5433;50.862;4.320;2023-08-06T01:53:59;14.70;;;8.00;;
10761;SDS011;5433;50.862;4.320;2023-08-06T01:56:25;10.18;;;7.90;;
10761;SDS011;5433;50.862;4.320;2023-08-06T01:58:51;14.02;;;7.80;;
10761;SDS011;5433;50.862;4.320;2023-08-06T02:01:17;11.98;;;7.30;;
10761;SDS011;5433;50.862;4.320;2023-08-06T02:03:44;10.48;;;5.85;;
10761;SDS011;5433;50.862;4.320;2023-08-06T02:06:10;9.07;;;5.55;;
10761;SDS011;5433;50.862;4.320;2023-08-06T02:08:36;8.68;;;4.80;;
10761;SDS011;5433;50.862;4.320;2023-08-06T02:11:02;8.45;;;3.90;;
10761;SDS011;5433;50.862;4.320;2023-08-06T02:13:28;7.80;;;4.03;;
10761;SDS011;5433;50.862;4.320;2023-08-06T02:15:54;9.75;;;3.70;;
10761;SDS011;5433;50.862;4.320;2023-08-06T02:18:20;7.10;;;3.33;;
10761;SDS011;5433;50.862;4.320;2023-08-06T02:21:04;8.65;;;3.30;;
10761;SDS011;5433;50.862;4.320;2023-08-06T02:23:30;9.73;;;3.22;;
10761;SDS011;5433;50.862;4.320;2023-08-06T02:26:03;9.13;;;3.15;;
10761;SDS011;5433;50.862;4.320;2023-08-06T02:28:30;10.88;;;2.95;;
10761;SDS011;5433;50.862;4.320;2023-08-06T02:30:59;8.05;;;2.80;;
10761;SDS011;5433;50.862;4.320;2023-08-06T02:33:25;9.50;;;3.10;;
10761;SDS011;5433;50.862;4.320;2023-08-06T02:35:58;9.73;;;2.90;;
10761;SDS011;5433;50.862;4.320;2023-08-06T02:38:25;5.78;;;2.50;;
10761;SDS011;5433;50.862;4.320;2023-08-06T02:40:51;7.28;;;2.55;;
10761;SDS011;5433;50.862;4.320;2023-08-06T02:43:17;11.98;;;2.78;;
10761;SDS011;5433;50.862;4.320;2023-08-06T02:45:43;9.88;;;2.30;;
10761;SDS011;5433;50.862;4.320;2023-08-06T02:48:09;7.20;;;2.50;;
10761;SDS011;5433;50.862;4.320;2023-08-06T02:50:39;7.57;;;2.47;;
10761;SDS011;5433;50.862;4.320;2023-08-06T02:53:05;12.98;;;2.63;;
10761;SDS011;5433;50.862;4.320;2023-08-06T02:55:32;7.45;;;2.55;;
10761;SDS011;5433;50.862;4.320;2023-08-06T02:57:59;8.05;;;2.47;;
10761;SDS011;5433;50.862;4.320;2023-08-06T03:03:29;9.80;;;3.38;;
10761;SDS011;5433;50.862;4.320;2023-08-06T03:06:13;7.45;;;3.30;;
10761;SDS011;5433;50.862;4.320;2023-08-06T03:08:39;9.57;;;3.70;;
10761;SDS011;5433;50.862;4.320;2023-08-06T03:11:06;11.45;;;4.80;;
10761;SDS011;5433;50.862;4.320;2023-08-06T03:13:32;11.63;;;6.45;;
10761;SDS011;5433;50.862;4.320;2023-08-06T03:15:59;16.08;;;8.85;;
10761;SDS011;5433;50.862;4.320;2023-08-06T03:18:25;16.65;;;9.23;;
10761;SDS011;5433;50.862;4.320;2023-08-06T03:20:51;18.15;;;11.13;;
10761;SDS011;5433;50.862;4.320;2023-08-06T03:23:18;17.75;;;11.73;;
10761;SDS011;5433;50.862;4.320;2023-08-06T03:25:44;17.60;;;11.45;;
10761;SDS011;5433;50.862;4.320;2023-08-06T03:28:11;20.15;;;12.50;;
10761;SDS011;5433;50.862;4.320;2023-08-06T03:30:38;15.13;;;10.60;;
10761;SDS011;5433;50.862;4.320;2023-08-06T03:33:04;18.65;;;9.50;;
10761;SDS011;5433;50.862;4.320;2023-08-06T03:35:31;17.77;;;8.25;;
10761;SDS011;5433;50.862;4.320;2023-08-06T03:37:58;14.40;;;7.47;;
10761;SDS011;5433;50.862;4.320;2023-08-06T03:40:24;12.98;;;6.72;;
10761;SDS011;5433;50.862;4.320;2023-08-06T03:42:49;10.88;;;5.35;;
10761;SDS011;5433;50.862;4.320;2023-08-06T03:45:16;4.75;;;3.78;;
10761;SDS011;5433;50.862;4.320;2023-08-06T03:47:42;9.93;;;3.65;;
10761;SDS011;5433;50.862;4.320;2023-08-06T03:50:11;26.83;;;3.33;;
10761;SDS011;5433;50.862;4.320;2023-08-06T03:52:37;12.60;;;2.22;;
10761;SDS011;5433;50.862;4.320;2023-08-06T03:55:03;3.28;;;1.70;;
10761;SDS011;5433;50.862;4.320;2023-08-06T03:57:29;3.33;;;1.50;;
10761;SDS011;5433;50.862;4.320;2023-08-06T03:59:55;16.77;;;2.25;;
10761;SDS011;5433;50.862;4.320;2023-08-06T04:02:21;5.45;;;1.88;;
10761;SDS011;5433;50.862;4.320;2023-08-06T04:04:47;3.72;;;1.80;;
10761;SDS011;5433;50.862;4.320;2023-08-06T04:07:13;4.05;;;1.90;;
10761;SDS011;5433;50.862;4.320;2023-08-06T04:09:56;2.30;;;1.40;;
10761;SDS011;5433;50.862;4.320;2023-08-06T04:12:22;2.88;;;1.52;;
10761;SDS011;5433;50.862;4.320;2023-08-06T04:14:50;1.98;;;1.52;;
10761;SDS011;5433;50.862;4.320;2023-08-06T04:17:17;3.58;;;1.70;;
10761;SDS011;5433;50.862;4.320;2023-08-06T04:19:45;2.50;;;1.85;;
10761;SDS011;5433;50.862;4.320;2023-08-06T04:25:16;3.65;;;2.72;;
10761;SDS011;5433;50.862;4.320;2023-08-06T04:27:46;4.07;;;2.78;;
10761;SDS011;5433;50.862;4.320;2023-08-06T04:30:12;5.28;;;3.20;;
10761;SDS011;5433;50.862;4.320;2023-08-06T04:32:39;4.35;;;3.20;;
10761;SDS011;5433;50.862;4.320;2023-08-06T04:35:05;5.63;;;3.22;;
10761;SDS011;5433;50.862;4.320;2023-08-06T04:37:31;6.68;;;3.78;;
10761;SDS011;5433;50.862;4.320;2023-08-06T04:39:57;5.32;;;3.70;;
10761;SDS011;5433;50.862;4.320;2023-08-06T04:42:23;4.93;;;4.00;;
10761;SDS011;5433;50.862;4.320;2023-08-06T04:44:50;6.68;;;4.10;;
10761;SDS011;5433;50.862;4.320;2023-08-06T04:47:16;6.65;;;4.57;;
10761;SDS011;5433;50.862;4.320;2023-08-06T04:49:42;10.90;;;5.05;;
10761;SDS011;5433;50.862;4.320;2023-08-06T04:52:08;7.90;;;5.43;;
10761;SDS011;5433;50.862;4.320;2023-08-06T04:54:34;9.95;;;5.90;;
10761;SDS011;5433;50.862;4.320;2023-08-06T04:57:00;9.70;;;6.15;;
10761;SDS011;5433;50.862;4.320;2023-08-06T04:59:26;10.95;;;5.50;;
10761;SDS011;5433;50.862;4.320;2023-08-06T05:01:52;9.13;;;5.43;;
10761;SDS011;5433;50.862;4.320;2023-08-06T05:04:18;7.78;;;5.18;;
10761;SDS011;5433;50.862;4.320;2023-08-06T05:06:44;9.45;;;5.40;;
10761;SDS011;5433;50.862;4.320;2023-08-06T05:09:13;8.13;;;5.47;;
10761;SDS011;5433;50.862;4.320;2023-08-06T05:11:39;8.68;;;5.75;;
10761;SDS011;5433;50.862;4.320;2023-08-06T05:14:05;9.52;;;5.18;;
10761;SDS011;5433;50.862;4.320;2023-08-06T05:16:31;7.78;;;5.28;;
10761;SDS011;5433;50.862;4.320;2023-08-06T05:18:57;9.98;;;5.28;;
10761;SDS011;5433;50.862;4.320;2023-08-06T05:21:23;8.80;;;5.20;;
10761;SDS011;5433;50.862;4.320;2023-08-06T05:23:49;12.68;;;5.93;;
10761;SDS011;5433;50.862;4.320;2023-08-06T05:26:15;13.35;;;6.18;;
10761;SDS011;5433;50.862;4.320;2023-08-06T05:28:43;12.20;;;5.95;;
10761;SDS011;5433;50.862;4.320;2023-08-06T05:31:10;12.98;;;5.93;;
10761;SDS011;5433;50.862;4.320;2023-08-06T05:33:36;13.90;;;6.03;;
10761;SDS011;5433;50.862;4.320;2023-08-06T05:36:04;12.35;;;5.40;;
10761;SDS011;5433;50.862;4.320;2023-08-06T05:38:33;12.27;;;4.55;;
10761;SDS011;5433;50.862;4.320;2023-08-06T05:40:59;11.50;;;4.60;;
10761;SDS011;5433;50.862;4.320;2023-08-06T05:43:25;13.63;;;4.93;;
10761;SDS011;5433;50.862;4.320;2023-08-06T05:45:51;14.00;;;5.32;;
10761;SDS011;5433;50.862;4.320;2023-08-06T05:51:27;15.00;;;5.40;;
10761;SDS011;5433;50.862;4.320;2023-08-06T05:53:53;14.75;;;5.82;;
10761;SDS011;5433;50.862;4.320;2023-08-06T05:56:19;13.27;;;5.82;;
10761;SDS011;5433;50.862;4.320;2023-08-06T05:58:45;16.60;;;6.03;;
10761;SDS011;5433;50.862;4.320;2023-08-06T06:01:12;16.13;;;5.88;;
10761;SDS011;5433;50.862;4.320;2023-08-06T06:03:38;15.90;;;6.03;;
10761;SDS011;5433;50.862;4.320;2023-08-06T06:06:04;14.25;;;5.93;;
10761;SDS011;5433;50.862;4.320;2023-08-06T06:08:30;10.60;;;5.82;;
10761;SDS011;5433;50.862;4.320;2023-08-06T06:10:56;14.18;;;5.63;;
10761;SDS011;5433;50.862;4.320;2023-08-06T06:13:23;19.35;;;5.70;;
10761;SDS011;5433;50.862;4.320;2023-08-06T06:15:49;13.32;;;5.85;;
10761;SDS011;5433;50.862;4.320;2023-08-06T06:18:15;14.75;;;5.63;;
10761;SDS011;5433;50.862;4.320;2023-08-06T06:20:41;13.50;;;5.70;;
10761;SDS011;5433;50.862;4.320;2023-08-06T06:23:07;12.85;;;5.40;;
10761;SDS011;5433;50.862;4.320;2023-08-06T06:25:34;14.88;;;5.10;;
10761;SDS011;5433;50.862;4.320;2023-08-06T06:28:00;16.17;;;5.40;;
10761;SDS011;5433;50.862;4.320;2023-08-06T06:30:26;12.82;;;5.13;;
10761;SDS011;5433;50.862;4.320;2023-08-06T06:32:52;14.38;;;5.63;;
10761;SDS011;5433;50.862;4.320;2023-08-06T06:35:17;14.10;;;5.88;;
10761;SDS011;5433;50.862;4.320;2023-08-06T06:37:43;13.45;;;5.20;;
10761;SDS011;5433;50.862;4.320;2023-08-06T06:40:10;10.25;;;5.25;;
10761;SDS011;5433;50.862;4.320;2023-08-06T06:42:36;13.48;;;5.35;;
10761;SDS011;5433;50.862;4.320;2023-08-06T06:45:02;15.23;;;5.32;;
10761;SDS011;5433;50.862;4.320;2023-08-06T06:47:28;11.38;;;5.32;;
10761;SDS011;5433;50.862;4.320;2023-08-06T06:49:54;11.77;;;5.50;;
10761;SDS011;5433;50.862;4.320;2023-08-06T06:52:20;13.10;;;5.15;;
10761;SDS011;5433;50.862;4.320;2023-08-06T06:54:46;11.88;;;4.95;;
10761;SDS011;5433;50.862;4.320;2023-08-06T06:57:12;15.80;;;4.80;;
10761;SDS011;5433;50.862;4.320;2023-08-06T06:59:38;12.73;;;4.25;;
10761;SDS011;5433;50.862;4.320;2023-08-06T07:02:04;10.32;;;4.63;;
10761;SDS011;5433;50.862;4.320;2023-08-06T07:04:31;11.10;;;4.28;;
10761;SDS011;5433;50.862;4.320;2023-08-06T07:06:57;11.85;;;3.80;;
10761;SDS011;5433;50.862;4.320;2023-08-06T07:09:23;8.75;;;2.97;;
10761;SDS011;5433;50.862;4.320;2023-08-06T07:11:49;9.32;;;2.50;;
10761;SDS011;5433;50.862;4.320;2023-08-06T07:14:15;6.72;;;2.67;;
10761;SDS011;5433;50.862;4.320;2023-08-06T07:16:41;10.13;;;2.42;;
10761;SDS011;5433;50.862;4.320;2023-08-06T07:19:07;9.90;;;2.50;;
10761;SDS011;5433;50.862;4.320;2023-08-06T07:21:33;5.35;;;1.80;;
10761;SDS011;5433;50.862;4.320;2023-08-06T07:23:59;8.45;;;2.03;;
10761;SDS011;5433;50.862;4.320;2023-08-06T07:26:25;8.38;;;1.95;;
10761;SDS011;5433;50.862;4.320;2023-08-06T07:28:51;8.73;;;2.33;;
10761;SDS011;5433;50.862;4.320;2023-08-06T07:31:17;6.65;;;2.78;;
10761;SDS011;5433;50.862;4.320;2023-08-06T07:33:43;10.40;;;2.20;;
10761;SDS011;5433;50.862;4.320;2023-08-06T07:36:13;5.63;;;1.88;;
10761;SDS011;5433;50.862;4.320;2023-08-06T07:38:40;10.93;;;2.33;;
10761;SDS011;5433;50.862;4.320;2023-08-06T07:41:06;8.43;;;1.77;;
10761;SDS011;5433;50.862;4.320;2023-08-06T07:43:32;8.13;;;2.08;;
10761;SDS011;5433;50.862;4.320;2023-08-06T07:45:58;10.30;;;2.00;;
10761;SDS011;5433;50.862;4.320;2023-08-06T07:48:25;5.97;;;1.80;;
10761;SDS011;5433;50.862;4.320;2023-08-06T07:50:52;7.30;;;2.00;;
10761;SDS011;5433;50.862;4.320;2023-08-06T07:53:19;10.63;;;2.03;;
10761;SDS011;5433;50.862;4.320;2023-08-06T07:55:47;6.43;;;1.80;;
10761;SDS011;5433;50.862;4.320;2023-08-06T07:58:13;10.18;;;1.77;;
10761;SDS011;5433;50.862;4.320;2023-08-06T08:00:40;5.90;;;1.70;;
10761;SDS011;5433;50.862;4.320;2023-08-06T08:03:24;12.32;;;2.20;;
10761;SDS011;5433;50.862;4.320;2023-08-06T08:05:50;8.82;;;1.73;;
10761;SDS011;5433;50.862;4.320;2023-08-06T08:08:21;7.13;;;1.88;;
10761;SDS011;5433;50.862;4.320;2023-08-06T08:10:47;7.45;;;1.98;;
10761;SDS011;5433;50.862;4.320;2023-08-06T08:13:13;6.32;;;2.05;;
10761;SDS011;5433;50.862;4.320;2023-08-06T08:15:39;8.60;;;1.90;;
10761;SDS011;5433;50.862;4.320;2023-08-06T08:18:05;7.10;;;1.75;;
10761;SDS011;5433;50.862;4.320;2023-08-06T08:20:31;8.48;;;2.15;;
10761;SDS011;5433;50.862;4.320;2023-08-06T08:22:58;9.23;;;2.05;;
10761;SDS011;5433;50.862;4.320;2023-08-06T08:25:25;5.13;;;2.00;;
10761;SDS011;5433;50.862;4.320;2023-08-06T08:27:53;6.30;;;1.88;;
10761;SDS011;5433;50.862;4.320;2023-08-06T08:30:19;8.13;;;2.00;;
10761;SDS011;5433;50.862;4.320;2023-08-06T08:32:45;8.18;;;2.17;;
10761;SDS011;5433;50.862;4.320;2023-08-06T08:35:11;6.25;;;2.13;;
10761;SDS011;5433;50.862;4.320;2023-08-06T08:37:38;6.55;;;1.92;;
10761;SDS011;5433;50.862;4.320;2023-08-06T08:40:05;8.10;;;2.10;;
10761;SDS011;5433;50.862;4.320;2023-08-06T08:42:31;6.82;;;2.03;;
10761;SDS011;5433;50.862;4.320;2023-08-06T08:44:57;8.27;;;2.38;;
10761;SDS011;5433;50.862;4.320;2023-08-06T08:47:24;9.38;;;2.33;;
10761;SDS011;5433;50.862;4.320;2023-08-06T08:49:52;8.15;;;1.80;;
10761;SDS011;5433;50.862;4.320;2023-08-06T08:52:21;5.03;;;1.83;;
10761;SDS011;5433;50.862;4.320;2023-08-06T08:54:48;7.30;;;2.10;;
10761;SDS011;5433;50.862;4.320;2023-08-06T08:57:18;5.53;;;2.00;;
10761;SDS011;5433;50.862;4.320;2023-08-06T08:59:44;8.35;;;2.08;;
10761;SDS011;5433;50.862;4.320;2023-08-06T09:02:13;8.90;;;2.38;;
10761;SDS011;5433;50.862;4.320;2023-08-06T09:04:40;7.45;;;1.80;;
10761;SDS011;5433;50.862;4.320;2023-08-06T09:07:07;10.90;;;2.20;;
10761;SDS011;5433;50.862;4.320;2023-08-06T09:09:34;8.05;;;1.88;;
10761;SDS011;5433;50.862;4.320;2023-08-06T09:12:11;4.72;;;2.28;;
10761;SDS011;5433;50.862;4.320;2023-08-06T09:14:38;6.10;;;1.98;;
10761;SDS011;5433;50.862;4.320;2023-08-06T09:17:06;9.77;;;2.10;;
10761;SDS011;5433;50.862;4.320;2023-08-06T09:19:34;7.28;;;2.20;;
10761;SDS011;5433;50.862;4.320;2023-08-06T09:24:45;6.63;;;1.92;;
10761;SDS011;5433;50.862;4.320;2023-08-06T09:27:14;7.13;;;2.10;;
10761;SDS011;5433;50.862;4.320;2023-08-06T09:29:43;8.73;;;2.15;;
10761;SDS011;5433;50.862;4.320;2023-08-06T09:32:10;5.03;;;2.03;;
10761;SDS011;5433;50.862;4.320;2023-08-06T09:34:38;9.32;;;2.40;;
10761;SDS011;5433;50.862;4.320;2023-08-06T09:37:04;8.27;;;2.50;;
10761;SDS011;5433;50.862;4.320;2023-08-06T09:39:30;8.05;;;2.08;;
10761;SDS011;5433;50.862;4.320;2023-08-06T09:41:57;9.18;;;2.38;;
10761;SDS011;5433;50.862;4.320;2023-08-06T09:44:24;9.23;;;2.65;;
10761;SDS011;5433;50.862;4.320;2023-08-06T09:46:57;8.23;;;2.38;;
10761;SDS011;5433;50.862;4.320;2023-08-06T09:51:52;8.98;;;2.22;;
10761;SDS011;5433;50.862;4.320;2023-08-06T09:54:22;8.50;;;2.20;;
10761;SDS011;5433;50.862;4.320;2023-08-06T09:56:48;8.60;;;2.22;;
10761;SDS011;5433;50.862;4.320;2023-08-06T09:59:14;7.40;;;2.45;;
10761;SDS011;5433;50.862;4.320;2023-08-06T10:01:43;9.88;;;2.40;;
10761;SDS011;5433;50.862;4.320;2023-08-06T10:04:09;11.13;;;2.40;;
10761;SDS011;5433;50.862;4.320;2023-08-06T10:06:37;6.22;;;1.90;;
10761;SDS011;5433;50.862;4.320;2023-08-06T10:09:06;8.60;;;2.20;;
10761;SDS011;5433;50.862;4.320;2023-08-06T10:11:33;9.27;;;2.20;;
10761;SDS011;5433;50.862;4.320;2023-08-06T10:14:19;7.75;;;1.90;;
10761;SDS011;5433;50.862;4.320;2023-08-06T10:16:47;8.30;;;2.28;;
10761;SDS011;5433;50.862;4.320;2023-08-06T10:19:13;8.30;;;2.08;;
10761;SDS011;5433;50.862;4.320;2023-08-06T10:21:39;6.38;;;1.73;;
10761;SDS011;5433;50.862;4.320;2023-08-06T10:24:08;6.32;;;1.67;;
10761;SDS011;5433;50.862;4.320;2023-08-06T10:26:35;7.03;;;1.75;;
10761;SDS011;5433;50.862;4.320;2023-08-06T10:29:01;5.65;;;1.60;;
10761;SDS011;5433;50.862;4.320;2023-08-06T10:34:16;6.43;;;1.83;;
10761;SDS011;5433;50.862;4.320;2023-08-06T10:36:44;4.93;;;1.70;;
10761;SDS011;5433;50.862;4.320;2023-08-06T10:39:13;6.78;;;2.08;;
10761;SDS011;5433;50.862;4.320;2023-08-06T10:41:39;4.88;;;1.70;;
10761;SDS011;5433;50.862;4.320;2023-08-06T10:44:08;5.85;;;1.73;;
10761;SDS011;5433;50.862;4.320;2023-08-06T10:46:34;7.70;;;2.28;;
10761;SDS011;5433;50.862;4.320;2023-08-06T10:49:00;12.40;;;2.70;;
10761;SDS011;5433;50.862;4.320;2023-08-06T10:51:26;8.02;;;2.55;;
10761;SDS011;5433;50.862;4.320;2023-08-06T10:53:53;7.55;;;2.47;;
10761;SDS011;5433;50.862;4.320;2023-08-06T10:56:20;10.32;;;2.90;;
10761;SDS011;5433;50.862;4.320;2023-08-06T10:58:49;10.10;;;2.80;;
10761;SDS011;5433;50.862;4.320;2023-08-06T11:01:15;9.82;;;2.60;;
10761;SDS011;5433;50.862;4.320;2023-08-06T11:03:42;10.73;;;2.80;;
10761;SDS011;5433;50.862;4.320;2023-08-06T11:06:08;8.15;;;2.40;;
10761;SDS011;5433;50.862;4.320;2023-08-06T11:08:36;8.50;;;2.30;;
10761;SDS011;5433;50.862;4.320;2023-08-06T11:11:11;7.70;;;2.40;;
10761;SDS011;5433;50.862;4.320;2023-08-06T11:13:38;6.82;;;2.35;;
10761;SDS011;5433;50.862;4.320;2023-08-06T11:16:05;8.10;;;2.13;;
10761;SDS011;5433;50.862;4.320;2023-08-06T11:18:32;8.00;;;2.20;;
10761;SDS011;5433;50.862;4.320;2023-08-06T11:20:58;7.55;;;2.20;;
10761;SDS011;5433;50.862;4.320;2023-08-06T11:23:26;7.13;;;1.83;;
10761;SDS011;5433;50.862;4.320;2023-08-06T11:25:53;4.72;;;1.98;;
10761;SDS011;5433;50.862;4.320;2023-08-06T11:28:19;6.40;;;2.00;;
10761;SDS011;5433;50.862;4.320;2023-08-06T11:30:46;6.85;;;1.92;;
10761;SDS011;5433;50.862;4.320;2023-08-06T11:33:13;9.32;;;1.90;;
10761;SDS011;5433;50.862;4.320;2023-08-06T11:35:39;5.05;;;1.85;;
10761;SDS011;5433;50.862;4.320;2023-08-06T11:38:05;7.13;;;1.80;;
10761;SDS011;5433;50.862;4.320;2023-08-06T11:40:35;5.63;;;1.90;;
10761;SDS011;5433;50.862;4.320;2023-08-06T11:43:01;5.80;;;1.80;;
10761;SDS011;5433;50.862;4.320;2023-08-06T11:45:27;3.75;;;1.30;;
10761;SDS011;5433;50.862;4.320;2023-08-06T11:47:53;6.82;;;2.28;;
10761;SDS011;5433;50.862;4.320;2023-08-06T11:50:25;5.30;;;1.60;;
10761;SDS011;5433;50.862;4.320;2023-08-06T11:52:59;6.45;;;2.00;;
10761;SDS011;5433;50.862;4.320;2023-08-06T11:55:25;5.03;;;1.73;;
10761;SDS011;5433;50.862;4.320;2023-08-06T11:57:53;6.35;;;1.83;;
10761;SDS011;5433;50.862;4.320;2023-08-06T12:00:19;6.68;;;2.00;;
10761;SDS011;5433;50.862;4.320;2023-08-06T12:02:47;5.78;;;1.90;;
10761;SDS011;5433;50.862;4.320;2023-08-06T12:05:23;4.63;;;1.70;;
10761;SDS011;5433;50.862;4.320;2023-08-06T12:07:51;5.32;;;1.90;;
10761;SDS011;5433;50.862;4.320;2023-08-06T12:10:17;6.72;;;1.92;;
10761;SDS011;5433;50.862;4.320;2023-08-06T12:12:47;4.82;;;1.90;;
10761;SDS011;5433;50.862;4.320;2023-08-06T12:15:13;9.35;;;2.42;;
10761;SDS011;5433;50.862;4.320;2023-08-06T12:17:39;7.95;;;2.20;;
10761;SDS011;5433;50.862;4.320;2023-08-06T12:20:06;7.05;;;2.30;;
10761;SDS011;5433;50.862;4.320;2023-08-06T12:22:33;5.95;;;1.88;;
10761;SDS011;5433;50.862;4.320;2023-08-06T12:25:03;5.20;;;1.83;;
10761;SDS011;5433;50.862;4.320;2023-08-06T12:27:31;11.10;;;2.30;;
10761;SDS011;5433;50.862;4.320;2023-08-06T12:29:57;6.60;;;1.88;;
10761;SDS011;5433;50.862;4.320;2023-08-06T12:32:23;8.45;;;2.30;;
10761;SDS011;5433;50.862;4.320;2023-08-06T12:34:49;7.18;;;2.00;;
10761;SDS011;5433;50.862;4.320;2023-08-06T12:37:15;7.53;;;1.83;;
10761;SDS011;5433;50.862;4.320;2023-08-06T12:39:41;6.72;;;1.83;;
10761;SDS011;5433;50.862;4.320;2023-08-06T12:42:07;4.53;;;1.88;;
10761;SDS011;5433;50.862;4.320;2023-08-06T12:44:34;4.45;;;1.52;;
10761;SDS011;5433;50.862;4.320;2023-08-06T12:47:00;5.07;;;1.50;;
10761;SDS011;5433;50.862;4.320;2023-08-06T12:49:26;7.75;;;1.90;;
10761;SDS011;5433;50.862;4.320;2023-08-06T12:51:53;6.55;;;1.85;;
10761;SDS011;5433;50.862;4.320;2023-08-06T12:54:22;4.93;;;1.70;;
10761;SDS011;5433;50.862;4.320;2023-08-06T12:56:48;5.07;;;2.00;;
10761;SDS011;5433;50.862;4.320;2023-08-06T12:59:15;6.22;;;2.00;;
10761;SDS011;5433;50.862;4.320;2023-08-06T13:01:42;7.90;;;1.95;;
10761;SDS011;5433;50.862;4.320;2023-08-06T13:04:08;5.55;;;1.73;;
10761;SDS011;5433;50.862;4.320;2023-08-06T13:06:34;6.70;;;1.98;;
10761;SDS011;5433;50.862;4.320;2023-08-06T13:09:05;6.72;;;2.20;;
10761;SDS011;5433;50.862;4.320;2023-08-06T13:11:32;7.50;;;1.92;;
10761;SDS011;5433;50.862;4.320;2023-08-06T13:14:05;5.07;;;1.88;;
10761;SDS011;5433;50.862;4.320;2023-08-06T13:16:32;7.20;;;2.35;;
10761;SDS011;5433;50.862;4.320;2023-08-06T13:18:58;4.97;;;1.45;;
10761;SDS011;5433;50.862;4.320;2023-08-06T13:21:24;7.93;;;2.30;;
10761;SDS011;5433;50.862;4.320;2023-08-06T13:23:50;6.00;;;2.08;;
10761;SDS011;5433;50.862;4.320;2023-08-06T13:26:17;6.95;;;1.95;;
10761;SDS011;5433;50.862;4.320;2023-08-06T13:28:43;8.32;;;2.00;;
10761;SDS011;5433;50.862;4.320;2023-08-06T13:31:09;7.95;;;2.28;;
10761;SDS011;5433;50.862;4.320;2023-08-06T13:33:35;6.78;;;2.28;;
10761;SDS011;5433;50.862;4.320;2023-08-06T13:36:02;6.15;;;1.95;;
10761;SDS011;5433;50.862;4.320;2023-08-06T13:38:28;7.57;;;2.00;;
10761;SDS011;5433;50.862;4.320;2023-08-06T13:40:54;5.32;;;2.38;;
10761;SDS011;5433;50.862;4.320;2023-08-06T13:43:20;7.97;;;2.00;;
10761;SDS011;5433;50.862;4.320;2023-08-06T13:45:49;6.47;;;2.00;;
10761;SDS011;5433;50.862;4.320;2023-08-06T13:48:15;8.82;;;2.25;;
10761;SDS011;5433;50.862;4.320;2023-08-06T13:50:41;7.40;;;1.98;;
10761;SDS011;5433;50.862;4.320;2023-08-06T13:53:07;8.82;;;2.15;;
10761;SDS011;5433;50.862;4.320;2023-08-06T13:55:33;5.30;;;1.80;;
10761;SDS011;5433;50.862;4.320;2023-08-06T13:58:00;7.60;;;1.80;;
10761;SDS011;5433;50.862;4.320;2023-08-06T14:00:26;7.72;;;1.73;;
10761;SDS011;5433;50.862;4.320;2023-08-06T14:02:52;6.00;;;1.73;;
10761;SDS011;5433;50.862;4.320;2023-08-06T14:05:18;3.75;;;1.40;;
10761;SDS011;5433;50.862;4.320;2023-08-06T14:07:44;6.63;;;1.70;;
10761;SDS011;5433;50.862;4.320;2023-08-06T14:10:10;8.40;;;1.80;;
10761;SDS011;5433;50.862;4.320;2023-08-06T14:12:36;4.35;;;1.40;;
10761;SDS011;5433;50.862;4.320;2023-08-06T14:15:02;6.90;;;1.52;;
10761;SDS011;5433;50.862;4.320;2023-08-06T14:17:28;5.13;;;1.77;;
10761;SDS011;5433;50.862;4.320;2023-08-06T14:19:54;11.20;;;1.90;;
10761;SDS011;5433;50.862;4.320;2023-08-06T14:22:21;7.03;;;1.63;;
10761;SDS011;5433;50.862;4.320;2023-08-06T14:24:47;6.35;;;1.80;;
10761;SDS011;5433;50.862;4.320;2023-08-06T14:27:13;5.65;;;2.00;;
10761;SDS011;5433;50.862;4.320;2023-08-06T14:29:39;10.27;;;2.20;;
10761;SDS011;5433;50.862;4.320;2023-08-06T14:32:05;7.28;;;2.00;;
10761;SDS011;5433;50.862;4.320;2023-08-06T14:34:31;7.65;;;2.10;;
10761;SDS011;5433;50.862;4.320;2023-08-06T14:36:57;6.10;;;1.75;;
10761;SDS011;5433;50.862;4.320;2023-08-06T14:39:24;9.57;;;2.03;;
10761;SDS011;5433;50.862;4.320;2023-08-06T14:41:50;9.23;;;2.38;;
10761;SDS011;5433;50.862;4.320;2023-08-06T14:44:16;8.38;;;1.90;;
10761;SDS011;5433;50.862;4.320;2023-08-06T14:46:42;5.32;;;1.60;;
10761;SDS011;5433;50.862;4.320;2023-08-06T14:49:08;6.13;;;1.98;;
10761;SDS011;5433;50.862;4.320;2023-08-06T14:51:35;9.18;;;2.30;;
10761;SDS011;5433;50.862;4.320;2023-08-06T14:54:01;8.85;;;2.40;;
10761;SDS011;5433;50.862;4.320;2023-08-06T14:56:27;8.10;;;2.20;;
10761;SDS011;5433;50.862;4.320;2023-08-06T14:58:53;5.63;;;1.90;;
10761;SDS011;5433;50.862;4.320;2023-08-06T15:01:20;10.68;;;2.17;;
10761;SDS011;5433;50.862;4.320;2023-08-06T15:03:46;8.52;;;2.08;;
10761;SDS011;5433;50.862;4.320;2023-08-06T15:06:12;6.47;;;2.28;;
10761;SDS011;5433;50.862;4.320;2023-08-06T15:08:38;5.25;;;1.90;;
10761;SDS011;5433;50.862;4.320;2023-08-06T15:11:04;8.07;;;2.22;;
10761;SDS011;5433;50.862;4.320;2023-08-06T15:13:30;5.82;;;2.30;;
10761;SDS011;5433;50.862;4.320;2023-08-06T15:15:56;6.22;;;2.17;;
10761;SDS011;5433;50.862;4.320;2023-08-06T15:18:23;8.43;;;2.13;;
10761;SDS011;5433;50.862;4.320;2023-08-06T15:20:51;8.45;;;1.88;;
10761;SDS011;5433;50.862;4.320;2023-08-06T15:23:17;5.82;;;1.70;;